Time,TemperatureF,DewpointF,PressureIn,WindDirection,WindDirectionDegrees,WindSpeedMPH,WindSpeedGustMPH,Humidity,HourlyPrecipIn,Conditions,Clouds,dailyrainin,SoftwareType,DateUTC
2013-10-06 00:13:00,41.0,34.0,29.98,South,180,4.0,15.0,75,0.00,,,0.01,,2013-10-06 05:13:00,
2013-10-06 00:22:00,40.0,33.0,29.98,SSW,192,5.0,15.0,76,0.00,,,0.01,,2013-10-06 05:22:00,
2013-10-06 00:43:00,41.0,33.0,29.98,SSW,197,4.0,13.0,74,0.00,,,0.01,,2013-10-06 05:43:00,
2013-10-06 00:52:00,41.0,33.0,29.98,South,174,5.0,11.0,73,0.00,,,0.01,,2013-10-06 05:52:00,
2013-10-06 01:12:00,42.0,33.0,29.97,SSE,153,4.0,12.0,70,0.00,,,0.01,,2013-10-06 06:12:00,
2013-10-06 01:22:00,42.0,32.0,29.97,SSW,198,4.0,11.0,68,0.01,,,0.02,,2013-10-06 06:22:00,
2013-10-06 01:42:00,41.0,32.0,29.98,South,190,4.0,9.0,70,0.01,,,0.02,,2013-10-06 06:42:00,
2013-10-06 01:52:00,41.0,32.0,29.98,South,188,1.0,8.0,70,0.01,,,0.02,,2013-10-06 06:52:00,
2013-10-06 02:11:00,41.0,32.0,29.98,SSW,193,2.0,7.0,70,0.01,,,0.02,,2013-10-06 07:11:00,
2013-10-06 02:22:00,41.0,32.0,29.98,SSW,202,3.0,9.0,69,0.00,,,0.02,,2013-10-06 07:22:00,
2013-10-06 02:42:00,41.0,31.0,29.98,South,190,1.0,6.0,68,0.00,,,0.02,,2013-10-06 07:42:00,
2013-10-06 02:52:00,41.0,32.0,29.98,SSE,165,2.0,6.0,69,0.00,,,0.02,,2013-10-06 07:52:00,
2013-10-06 03:11:00,42.0,32.0,29.99,SSW,203,2.0,8.0,67,0.00,,,0.02,,2013-10-06 08:11:00,
2013-10-06 03:22:00,42.0,31.0,29.98,South,188,1.0,6.0,66,0.00,,,0.02,,2013-10-06 08:22:00,
2013-10-06 03:42:00,41.0,32.0,29.99,South,184,3.0,7.0,69,0.00,,,0.02,,2013-10-06 08:42:00,
2013-10-06 03:52:00,41.0,32.0,29.98,SW,217,4.0,10.0,69,0.00,,,0.02,,2013-10-06 08:52:00,
2013-10-06 04:11:00,40.0,31.0,29.98,SSE,162,4.0,11.0,70,0.00,,,0.02,,2013-10-06 09:11:00,
2013-10-06 04:22:00,39.0,31.0,29.98,SSE,159,3.0,11.0,72,0.00,,,0.02,,2013-10-06 09:22:00,
2013-10-06 04:43:00,39.0,31.0,29.99,SSE,162,2.0,8.0,73,0.00,,,0.02,,2013-10-06 09:43:00,
2013-10-06 04:53:00,39.0,31.0,29.99,SSW,212,5.0,9.0,73,0.00,,,0.02,,2013-10-06 09:53:00,
2013-10-06 05:13:00,39.0,31.0,29.98,SSW,198,6.0,15.0,72,0.00,,,0.02,,2013-10-06 10:13:00,
2013-10-06 05:23:00,39.0,31.0,29.98,SW,230,5.0,13.0,72,0.00,,,0.02,,2013-10-06 10:23:00,
2013-10-06 05:43:00,38.0,30.0,29.98,SSW,205,6.0,13.0,73,0.00,,,0.02,,2013-10-06 10:43:00,
2013-10-06 05:53:00,38.0,30.0,29.98,SSW,205,4.0,15.0,74,0.00,,,0.02,,2013-10-06 10:53:00,
2013-10-06 06:12:00,37.0,29.0,29.99,SSE,161,5.0,9.0,74,0.00,,,0.02,,2013-10-06 11:12:00,
2013-10-06 06:21:00,37.0,29.0,29.99,South,169,4.0,10.0,74,0.00,,,0.02,,2013-10-06 11:21:00,
2013-10-06 06:42:00,37.0,30.0,30.00,SSW,205,5.0,10.0,75,0.00,,,0.02,,2013-10-06 11:42:00,
2013-10-06 06:52:00,37.0,30.0,30.00,South,186,6.0,10.0,75,0.00,,,0.02,,2013-10-06 11:52:00,
2013-10-06 07:12:00,37.0,29.0,29.99,South,190,5.0,10.0,74,0.00,,,0.02,,2013-10-06 12:12:00,
2013-10-06 07:22:00,37.0,30.0,29.99,SSW,202,2.0,8.0,75,0.00,,,0.02,,2013-10-06 12:22:00,
2013-10-06 07:42:00,37.0,30.0,29.99,South,170,3.0,8.0,75,0.00,,,0.02,,2013-10-06 12:42:00,
2013-10-06 07:52:00,36.0,29.0,29.99,SSW,192,3.0,9.0,75,0.00,,,0.02,,2013-10-06 12:52:00,
2013-10-06 08:11:00,36.0,29.0,30.00,SW,223,4.0,10.0,75,0.00,,,0.02,,2013-10-06 13:11:00,
2013-10-06 08:21:00,36.0,29.0,30.00,SSW,200,3.0,7.0,76,0.00,,,0.02,,2013-10-06 13:21:00,
2013-10-06 08:42:00,36.0,29.0,30.00,SSW,207,3.0,9.0,76,0.00,,,0.02,,2013-10-06 13:42:00,
2013-10-06 08:52:00,36.0,29.0,30.01,SSW,205,4.0,8.0,76,0.00,,,0.02,,2013-10-06 13:52:00,
2013-10-06 09:11:00,37.0,30.0,30.01,SSW,204,2.0,7.0,75,0.00,,,0.02,,2013-10-06 14:11:00,
2013-10-06 09:22:00,38.0,31.0,30.02,South,177,3.0,7.0,75,0.00,,,0.02,,2013-10-06 14:22:00,
2013-10-06 09:42:00,40.0,32.0,30.02,South,190,3.0,7.0,73,0.00,,,0.02,,2013-10-06 14:42:00,
2013-10-06 09:52:00,43.0,33.0,30.02,SSW,195,4.0,8.0,68,0.00,,,0.02,,2013-10-06 14:52:00,
2013-10-06 10:11:00,45.0,34.0,30.02,SSE,147,2.0,10.0,66,0.00,,,0.02,,2013-10-06 15:11:00,
2013-10-06 10:22:00,47.0,34.0,30.02,South,188,3.0,11.0,61,0.00,,,0.02,,2013-10-06 15:22:00,
2013-10-06 10:43:00,48.0,34.0,30.03,South,187,5.0,12.0,58,0.00,,,0.02,,2013-10-06 15:43:00,
2013-10-06 10:53:00,49.0,34.0,30.03,SSE,159,5.0,13.0,56,0.00,,,0.02,,2013-10-06 15:53:00,
2013-10-06 11:12:00,51.0,34.0,30.03,SW,216,3.0,10.0,53,0.00,,,0.02,,2013-10-06 16:12:00,
2013-10-06 11:23:00,52.0,33.0,30.03,South,173,5.0,11.0,49,0.00,,,0.02,,2013-10-06 16:23:00,
2013-10-06 11:42:00,53.0,33.0,30.03,SSW,192,3.0,10.0,47,0.00,,,0.02,,2013-10-06 16:42:00,
2013-10-06 11:53:00,54.0,33.0,30.04,SSW,200,3.0,21.0,44,0.00,,,0.02,,2013-10-06 16:53:00,
2013-10-06 12:12:00,55.0,32.0,30.03,SSW,211,4.0,11.0,42,0.00,,,0.02,,2013-10-06 17:12:00,
2013-10-06 12:22:00,56.0,32.0,30.03,South,171,5.0,12.0,40,0.00,,,0.02,,2013-10-06 17:22:00,
2013-10-06 12:42:00,57.0,32.0,30.03,South,180,4.0,12.0,39,0.00,,,0.02,,2013-10-06 17:42:00,
2013-10-06 12:52:00,58.0,33.0,30.03,SSW,195,4.0,11.0,39,0.00,,,0.02,,2013-10-06 17:52:00,
2013-10-06 13:12:00,59.0,33.0,30.03,SSW,196,2.0,9.0,38,0.00,,,0.02,,2013-10-06 18:12:00,
2013-10-06 13:22:00,59.0,33.0,30.03,SW,233,4.0,10.0,38,0.00,,,0.02,,2013-10-06 18:22:00,
2013-10-06 13:42:00,60.0,32.0,30.03,NE,53,4.0,13.0,35,0.00,,,0.02,,2013-10-06 18:42:00,
2013-10-06 13:52:00,60.0,34.0,30.03,SSW,211,3.0,9.0,37,0.00,,,0.02,,2013-10-06 18:52:00,
2013-10-06 14:11:00,61.0,32.0,30.02,WSW,237,3.0,12.0,34,0.00,,,0.02,,2013-10-06 19:11:00,
2013-10-06 14:22:00,62.0,34.0,30.01,SSW,210,3.0,9.0,35,0.00,,,0.02,,2013-10-06 19:22:00,
2013-10-06 14:42:00,63.0,33.0,30.01,South,178,2.0,9.0,33,0.00,,,0.02,,2013-10-06 19:42:00,
2013-10-06 14:52:00,63.0,33.0,30.00,South,169,4.0,12.0,33,0.00,,,0.02,,2013-10-06 19:52:00,
2013-10-06 15:11:00,63.0,34.0,30.00,SSW,213,4.0,10.0,34,0.00,,,0.02,,2013-10-06 20:11:00,
2013-10-06 15:22:00,63.0,32.0,30.01,South,176,5.0,12.0,31,0.00,,,0.02,,2013-10-06 20:22:00,
2013-10-06 15:42:00,63.0,33.0,30.00,SSW,198,4.0,14.0,32,0.00,,,0.02,,2013-10-06 20:42:00,
2013-10-06 15:52:00,63.0,31.0,29.99,SSW,198,4.0,10.0,30,0.00,,,0.02,,2013-10-06 20:52:00,
2013-10-06 16:11:00,64.0,32.0,29.99,NE,35,3.0,11.0,30,0.00,,,0.02,,2013-10-06 21:11:00,
2013-10-06 16:22:00,65.0,32.0,29.99,South,188,4.0,14.0,29,0.00,,,0.02,,2013-10-06 21:22:00,
2013-10-06 16:44:00,65.0,31.0,29.99,SSW,199,4.0,12.0,28,0.00,,,0.02,,2013-10-06 21:44:00,
2013-10-06 16:54:00,65.0,34.0,29.99,South,187,4.0,13.0,31,0.00,,,0.02,,2013-10-06 21:54:00,
2013-10-06 17:13:00,64.0,31.0,29.98,SW,214,2.0,9.0,29,0.00,,,0.02,,2013-10-06 22:13:00,
2013-10-06 17:24:00,64.0,32.0,29.99,SSW,205,3.0,10.0,30,0.00,,,0.02,,2013-10-06 22:24:00,
2013-10-06 17:42:00,64.0,31.0,29.99,SSW,200,2.0,12.0,29,0.00,,,0.02,,2013-10-06 22:42:00,
2013-10-06 17:53:00,64.0,28.0,29.99,SE,134,4.0,11.0,26,0.00,,,0.02,,2013-10-06 22:53:00,
2013-10-06 18:12:00,65.0,30.0,29.99,South,191,2.0,7.0,27,0.00,,,0.02,,2013-10-06 23:12:00,
2013-10-06 18:22:00,64.0,28.0,30.00,South,186,3.0,13.0,26,0.00,,,0.02,,2013-10-06 23:22:00,
2013-10-06 18:53:00,63.0,31.0,30.01,South,181,1.0,6.0,30,0.00,,,0.02,,2013-10-06 23:53:00,
2013-10-06 19:12:00,62.0,31.0,30.01,SSW,198,1.0,8.0,31,0.00,,,0.02,,2013-10-07 00:12:00,
2013-10-06 19:22:00,60.0,30.0,30.01,SSW,199,1.0,5.0,32,0.00,,,0.02,,2013-10-07 00:22:00,
2013-10-06 19:42:00,59.0,31.0,30.02,South,176,0.0,4.0,34,0.00,,,0.02,,2013-10-07 00:42:00,
2013-10-06 19:52:00,57.0,31.0,30.02,South,186,0.0,2.0,37,0.00,,,0.02,,2013-10-07 00:52:00,
2013-10-06 20:11:00,55.0,30.0,30.03,SW,227,0.0,1.0,38,0.00,,,0.02,,2013-10-07 01:11:00,
2013-10-06 20:22:00,54.0,31.0,30.03,SW,225,0.0,1.0,41,0.00,,,0.02,,2013-10-07 01:22:00,
2013-10-06 20:42:00,52.0,30.0,30.03,SW,225,0.0,0.0,43,0.00,,,0.02,,2013-10-07 01:42:00,
2013-10-06 20:53:00,51.0,31.0,30.03,SW,225,0.0,0.0,46,0.00,,,0.02,,2013-10-07 01:53:00,
2013-10-06 21:12:00,49.0,30.0,30.03,SW,225,0.0,1.0,48,0.00,,,0.02,,2013-10-07 02:12:00,
2013-10-06 21:22:00,48.0,30.0,30.03,SW,225,0.0,0.0,50,0.00,,,0.02,,2013-10-07 02:22:00,
2013-10-06 21:42:00,47.0,31.0,30.04,SW,225,0.0,0.0,53,0.00,,,0.01,,2013-10-07 02:42:00,
2013-10-06 21:53:00,47.0,31.0,30.04,SW,225,0.0,0.0,54,0.00,,,0.01,,2013-10-07 02:53:00,
2013-10-06 22:12:00,47.0,32.0,30.04,SW,225,0.0,0.0,55,0.00,,,0.01,,2013-10-07 03:12:00,
2013-10-06 22:22:00,46.0,31.0,30.04,SW,225,0.0,0.0,55,0.00,,,0.01,,2013-10-07 03:22:00,
2013-10-06 22:44:00,46.0,32.0,30.04,SW,225,0.0,0.0,57,0.00,,,0.01,,2013-10-07 03:44:00,
2013-10-06 22:54:00,45.0,32.0,30.04,SW,225,0.0,0.0,59,0.00,,,0.01,,2013-10-07 03:54:00,
2013-10-06 23:13:00,44.0,31.0,30.05,SW,225,0.0,0.0,61,0.00,,,0.01,,2013-10-07 04:13:00,
2013-10-06 23:24:00,42.0,30.0,30.05,SW,225,0.0,0.0,63,0.00,,,0.01,,2013-10-07 04:24:00,
2013-10-06 23:44:00,42.0,31.0,30.05,SW,225,0.0,0.0,66,0.00,,,0.01,,2013-10-07 04:44:00,
2013-10-06 23:53:00,41.0,31.0,30.05,SW,225,0.0,0.0,68,0.00,,,0.01,,2013-10-07 04:53:00,